createdAt,value
2019-04-14T00:00:59.510Z,2.27
2019-04-14T00:01:58.812Z,2.25
2019-04-14T00:02:58.460Z,2.23
2019-04-14T00:03:58.709Z,2.22
2019-04-14T00:04:59.439Z,2.20
2019-04-14T00:05:58.421Z,2.23
2019-04-14T00:06:59.165Z,2.23
2019-04-14T00:07:58.385Z,2.23
2019-04-14T00:08:58.655Z,2.22
2019-04-14T00:09:58.531Z,2.22
2019-04-14T00:10:59.416Z,2.22
2019-04-14T00:11:59.104Z,2.19
2019-04-14T00:12:58.419Z,2.23
2019-04-14T00:13:58.860Z,2.22
2019-04-14T00:14:58.358Z,2.09
2019-04-14T00:15:58.894Z,2.19
2019-04-14T00:16:59.565Z,2.19
2019-04-14T00:17:59.000Z,2.18
2019-04-14T00:18:58.351Z,2.09
2019-04-14T00:19:58.824Z,2.18
2019-04-14T00:20:58.277Z,2.18
2019-04-14T00:21:58.680Z,2.14
2019-04-14T00:22:58.299Z,2.12
2019-04-14T00:23:58.829Z,2.15
2019-04-14T00:24:59.738Z,2.15
2019-04-14T00:25:58.649Z,2.15
2019-04-14T00:26:59.465Z,2.11
2019-04-14T00:27:58.614Z,2.04
2019-04-14T00:28:58.217Z,2.07
2019-04-14T00:29:58.966Z,2.04
2019-04-14T00:30:58.236Z,2.05
2019-04-14T00:31:58.780Z,2.04
2019-04-14T00:32:59.390Z,2.08
2019-04-14T00:33:58.595Z,1.98
2019-04-14T00:34:59.287Z,2.01
2019-04-14T00:35:58.123Z,2.04
2019-04-14T00:36:58.851Z,2.05
2019-04-14T00:37:59.464Z,2.05
2019-04-14T00:38:58.489Z,2.05
2019-04-14T00:39:58.035Z,2.05
2019-04-14T00:40:58.338Z,2.08
2019-04-14T00:42:01.375Z,2.07
2019-04-14T00:42:58.252Z,2.05
2019-04-14T00:43:59.157Z,2.07
2019-04-14T00:44:58.135Z,2.07
2019-04-14T00:46:00.536Z,2.02
2019-04-14T00:46:58.238Z,2.09
2019-04-14T00:48:03.417Z,2.04
2019-04-14T00:48:58.914Z,2.02
2019-04-14T00:49:57.953Z,2.00
2019-04-14T00:50:58.150Z,1.98
2019-04-14T00:51:59.197Z,2.09
2019-04-14T00:52:58.842Z,2.11
2019-04-14T00:53:58.055Z,2.08
2019-04-14T00:54:58.698Z,2.05
2019-04-14T00:55:57.922Z,2.04
2019-04-14T00:56:58.486Z,2.07
2019-04-14T00:57:57.908Z,2.08
2019-04-14T00:58:58.253Z,2.08
2019-04-14T00:59:57.929Z,2.12
2019-04-14T01:00:58.065Z,2.07
2019-04-14T01:01:59.077Z,2.07
2019-04-14T01:02:58.015Z,2.04
2019-04-14T01:03:59.073Z,2.04
2019-04-14T01:04:57.770Z,2.01
2019-04-14T01:05:58.987Z,2.15
2019-04-14T01:06:57.732Z,2.07
2019-04-14T01:07:58.764Z,2.04
2019-04-14T01:08:57.714Z,2.08
2019-04-14T01:09:57.782Z,2.20
2019-04-14T01:10:58.358Z,2.04
2019-04-14T01:11:57.823Z,2.05
2019-04-14T01:12:58.160Z,2.08
2019-04-14T01:13:57.721Z,2.04
2019-04-14T01:14:58.214Z,2.07
2019-04-14T01:16:05.240Z,2.07
2019-04-14T01:16:58.643Z,2.04
2019-04-14T01:18:58.658Z,2.02
2019-04-14T01:19:57.646Z,2.08
2019-04-14T01:20:57.876Z,2.05
2019-04-14T01:21:58.788Z,2.11
2019-04-14T01:22:57.550Z,2.02
2019-04-14T01:24:59.898Z,2.07
2019-04-14T01:25:58.455Z,2.02
2019-04-14T01:26:57.538Z,1.98
2019-04-14T01:28:59.335Z,2.02
2019-04-14T01:29:58.168Z,1.98
2019-04-14T01:30:57.473Z,1.90
2019-04-14T01:31:57.914Z,1.92
2019-04-14T01:32:57.448Z,1.95
2019-04-14T01:33:57.640Z,1.83
2019-04-14T01:34:57.426Z,1.85
2019-04-14T01:35:57.455Z,1.89
2019-04-14T01:36:58.530Z,1.93
2019-04-14T01:37:57.480Z,1.90
2019-04-14T01:38:58.136Z,1.81
2019-04-14T01:39:58.596Z,1.83
2019-04-14T01:40:57.765Z,1.81
2019-04-14T01:41:58.573Z,1.79
2019-04-14T01:42:57.364Z,1.75
2019-04-14T01:43:58.250Z,1.72
2019-04-14T01:44:57.317Z,1.71
2019-04-14T01:46:07.200Z,1.63
2019-04-14T01:46:58.827Z,1.68
2019-04-14T01:47:57.577Z,1.63
2019-04-14T01:48:58.529Z,1.54
2019-04-14T01:49:57.421Z,1.56
2019-04-14T01:50:58.328Z,1.53
2019-04-14T01:51:57.379Z,1.44
2019-04-14T01:52:57.268Z,1.49
2019-04-14T01:53:57.514Z,1.42
2019-04-14T01:54:58.268Z,1.44
2019-04-14T01:55:57.283Z,1.47
2019-04-14T01:56:58.120Z,1.46
2019-04-14T01:57:57.348Z,1.46
2019-04-14T01:58:57.943Z,1.43
2019-04-14T01:59:57.205Z,1.43
2019-04-14T02:00:57.586Z,1.38
2019-04-14T02:01:57.241Z,1.36
2019-04-14T02:02:57.613Z,1.35
2019-04-14T02:03:58.406Z,1.31
2019-04-14T02:04:57.560Z,1.36
2019-04-14T02:05:58.288Z,1.35
2019-04-14T02:06:57.420Z,1.35
2019-04-14T02:07:57.980Z,1.21
2019-04-14T02:08:57.093Z,1.39
2019-04-14T02:09:57.559Z,1.16
2019-04-14T02:10:57.046Z,1.31
2019-04-14T02:12:58.489Z,1.26
2019-04-14T02:13:57.254Z,1.34
2019-04-14T02:14:58.040Z,1.18
2019-04-14T02:15:57.385Z,1.25
2019-04-14T02:16:59.532Z,1.20
2019-04-14T02:17:57.059Z,1.16
2019-04-14T02:18:58.475Z,1.20
2019-04-14T02:19:57.038Z,1.10
2019-04-14T02:20:57.902Z,1.13
2019-04-14T02:21:58.343Z,1.08
2019-04-14T02:22:57.347Z,1.13
2019-04-14T02:24:59.161Z,1.21
2019-04-14T02:25:57.961Z,1.14
2019-04-14T02:26:57.083Z,1.17
2019-04-14T02:27:57.979Z,1.14
2019-04-14T02:28:57.151Z,1.14
2019-04-14T02:29:58.122Z,1.13
2019-04-14T02:31:10.470Z,1.14
2019-04-14T02:32:27.287Z,1.13
2019-04-14T02:33:33.769Z,1.11
2019-04-14T02:34:41.609Z,1.13
2019-04-14T02:35:32.704Z,1.08
2019-04-14T02:36:32.652Z,1.06
2019-04-14T02:39:42.065Z,1.08
2019-04-14T02:40:28.658Z,0.98
2019-04-14T02:41:33.738Z,1.04
2019-04-14T02:42:36.801Z,1.07
2019-04-14T02:43:29.359Z,0.98
2019-04-14T02:45:26.833Z,0.96
2019-04-14T02:46:26.358Z,0.96
2019-04-14T02:47:47.281Z,0.92
2019-04-14T02:48:38.195Z,0.96
2019-04-14T02:49:27.419Z,0.96
2019-04-14T02:50:28.009Z,0.92
2019-04-14T02:52:29.994Z,0.89
2019-04-14T02:53:32.539Z,0.82
2019-04-14T02:54:48.034Z,0.92
2019-04-14T02:55:23.685Z,0.84
2019-04-14T02:56:36.626Z,0.92
2019-04-14T02:58:32.717Z,0.89
2019-04-14T02:59:23.008Z,0.88
2019-04-14T03:00:24.061Z,0.82
2019-04-14T03:01:38.737Z,0.81
2019-04-14T03:02:38.559Z,0.78
2019-04-14T03:04:35.173Z,0.80
2019-04-14T03:05:26.707Z,0.82
2019-04-14T03:06:17.857Z,0.89
2019-04-14T03:07:40.287Z,0.86
2019-04-14T03:08:25.752Z,0.89
2019-04-14T03:09:28.890Z,0.84
2019-04-14T03:10:28.114Z,0.82
2019-04-14T03:11:25.800Z,0.82
2019-04-14T03:12:24.837Z,0.96
2019-04-14T03:14:23.324Z,0.92
2019-04-14T03:15:25.647Z,0.88
2019-04-14T03:16:33.005Z,0.99
2019-04-14T03:17:31.501Z,1.04
2019-04-14T03:19:29.912Z,0.96
2019-04-14T03:21:34.813Z,0.99
2019-04-14T03:22:33.101Z,1.02
2019-04-14T03:23:30.851Z,0.95
2019-04-14T03:24:35.888Z,0.98
2019-04-14T03:25:09.745Z,1.04
2019-04-14T03:26:17.682Z,1.06
2019-04-14T03:27:39.942Z,1.04
2019-04-14T03:28:27.205Z,1.08
2019-04-14T03:29:26.814Z,1.11
2019-04-14T03:30:46.013Z,1.16
2019-04-14T03:31:49.514Z,1.11
2019-04-14T03:32:48.119Z,1.10
2019-04-14T03:35:58.573Z,1.21
2019-04-14T03:37:45.132Z,1.14
2019-04-14T03:38:24.589Z,1.13
2019-04-14T03:39:27.238Z,1.11
2019-04-14T03:40:28.057Z,1.13
2019-04-14T03:42:29.302Z,1.18
2019-04-14T03:43:25.237Z,1.16
2019-04-14T03:44:28.633Z,1.13
2019-04-14T03:45:25.751Z,1.11
2019-04-14T03:46:25.366Z,1.13
2019-04-14T03:47:25.486Z,1.14
2019-04-14T03:48:45.266Z,1.13
2019-04-14T03:49:26.290Z,1.14
2019-04-14T03:50:21.229Z,0.99
2019-04-14T03:51:44.608Z,1.00
2019-04-14T03:52:22.249Z,1.00
2019-04-14T03:53:27.651Z,0.96
2019-04-14T03:54:15.609Z,0.99
2019-04-14T03:56:02.434Z,0.98
2019-04-14T03:56:57.651Z,0.99
2019-04-14T03:58:57.689Z,0.95
2019-04-14T03:59:56.369Z,0.95
2019-04-14T04:00:55.914Z,0.95
2019-04-14T04:01:56.571Z,0.95
2019-04-14T04:02:55.852Z,0.92
2019-04-14T04:03:56.447Z,0.89
2019-04-14T04:04:55.834Z,0.88
2019-04-14T04:05:56.429Z,0.81
2019-04-14T04:06:55.845Z,0.84
2019-04-14T04:07:56.061Z,0.75
2019-04-14T04:08:55.791Z,0.82
2019-04-14T04:09:56.216Z,0.92
2019-04-14T04:10:55.795Z,0.75
2019-04-14T04:11:56.830Z,0.74
2019-04-14T04:12:55.764Z,0.72
2019-04-14T04:13:56.378Z,0.80
2019-04-14T04:14:55.740Z,0.67
2019-04-14T04:15:56.226Z,0.67
2019-04-14T04:16:55.731Z,0.67
2019-04-14T04:17:55.919Z,0.70
2019-04-14T04:19:02.705Z,0.68
2019-04-14T04:19:57.768Z,0.74
2019-04-14T04:20:56.638Z,0.71
2019-04-14T04:21:55.659Z,0.67
2019-04-14T04:22:56.561Z,0.63
2019-04-14T04:23:55.644Z,0.68
2019-04-14T04:25:57.274Z,0.68
2019-04-14T04:26:56.736Z,0.60
2019-04-14T04:27:56.688Z,0.57
2019-04-14T04:28:56.235Z,0.67
2019-04-14T04:29:55.571Z,0.52
2019-04-14T04:30:55.934Z,0.52
2019-04-14T04:31:56.751Z,0.59
2019-04-14T04:32:55.897Z,0.56
2019-04-14T04:33:56.537Z,0.59
2019-04-14T04:34:55.650Z,0.53
2019-04-14T04:35:56.465Z,0.56
2019-04-14T04:36:55.684Z,0.56
2019-04-14T04:37:56.339Z,0.60
2019-04-14T04:38:55.556Z,0.57
2019-04-14T04:39:56.148Z,0.56
2019-04-14T04:41:56.520Z,0.52
2019-04-14T04:43:56.473Z,0.44
2019-04-14T04:44:55.488Z,0.57
2019-04-14T04:45:55.929Z,0.56
2019-04-14T04:46:55.531Z,0.51
2019-04-14T04:47:55.653Z,0.62
2019-04-14T04:49:57.500Z,0.57
2019-04-14T04:50:56.401Z,0.52
2019-04-14T04:51:55.332Z,0.56
2019-04-14T04:52:56.194Z,0.59
2019-04-14T04:53:55.314Z,0.52
2019-04-14T04:54:55.899Z,0.52
2019-04-14T04:55:55.293Z,0.45
2019-04-14T04:57:56.660Z,0.43
2019-04-14T04:58:55.390Z,0.45
2019-04-14T04:59:56.146Z,0.48
2019-04-14T05:00:57.354Z,0.52
2019-04-14T05:01:55.907Z,0.45
2019-04-14T05:02:55.336Z,0.44
2019-04-14T05:03:55.712Z,0.44
2019-04-14T05:04:55.324Z,0.53
2019-04-14T05:05:55.743Z,0.49
2019-04-14T05:06:55.241Z,0.52
2019-04-14T05:07:55.468Z,0.53
2019-04-14T05:08:55.290Z,0.57
2019-04-14T05:09:55.601Z,0.57
2019-04-14T05:11:56.724Z,0.53
2019-04-14T05:12:56.418Z,0.60
2019-04-14T05:13:55.350Z,0.51
2019-04-14T05:14:55.184Z,0.57
2019-04-14T05:15:55.301Z,0.51
2019-04-14T05:16:55.199Z,0.56
2019-04-14T05:17:55.950Z,0.56
2019-04-14T05:18:55.256Z,0.56
2019-04-14T05:19:56.136Z,0.56
2019-04-14T05:20:55.468Z,0.53
2019-04-14T05:21:55.949Z,0.52
2019-04-14T05:22:55.094Z,0.53
2019-04-14T05:23:56.047Z,0.57
2019-04-14T05:24:55.074Z,0.59
2019-04-14T05:25:56.089Z,0.71
2019-04-14T05:26:55.077Z,0.72
2019-04-14T05:27:55.842Z,0.70
2019-04-14T05:28:57.012Z,0.70
2019-04-14T05:29:55.863Z,0.68
2019-04-14T05:30:55.025Z,0.75
2019-04-14T05:31:55.542Z,0.71
2019-04-14T05:32:55.029Z,0.72
2019-04-14T05:33:55.478Z,0.80
2019-04-14T05:34:54.964Z,0.70
2019-04-14T05:35:55.324Z,0.74
2019-04-14T05:36:54.948Z,0.80
2019-04-14T05:37:55.089Z,0.82
2019-04-14T05:38:55.961Z,0.86
2019-04-14T05:39:54.888Z,0.74
2019-04-14T05:40:56.109Z,0.81
2019-04-14T05:42:04.130Z,0.81
2019-04-14T05:42:55.930Z,0.95
2019-04-14T05:43:58.908Z,0.86
2019-04-14T05:44:55.874Z,0.93
2019-04-14T05:45:54.798Z,0.95
2019-04-14T05:46:55.732Z,0.93
2019-04-14T05:47:54.823Z,0.95
2019-04-14T05:48:55.774Z,0.93
2019-04-14T05:49:56.536Z,0.98
2019-04-14T05:50:55.484Z,1.00
2019-04-14T05:51:54.730Z,1.00
2019-04-14T05:52:55.700Z,1.02
2019-04-14T05:53:54.764Z,1.11
2019-04-14T05:54:55.798Z,1.17
2019-04-14T05:55:54.810Z,1.08
2019-04-14T05:56:55.752Z,1.17
2019-04-14T05:57:54.690Z,1.16
2019-04-14T05:58:55.690Z,1.16
2019-04-14T05:59:54.845Z,1.20
2019-04-14T06:00:55.736Z,1.20
2019-04-14T06:01:54.717Z,1.20
2019-04-14T06:02:55.176Z,1.21
2019-04-14T06:03:56.017Z,1.17
2019-04-14T06:04:55.059Z,1.28
2019-04-14T06:05:54.791Z,1.13
2019-04-14T06:06:54.618Z,1.28
2019-04-14T06:07:55.602Z,1.28
2019-04-14T06:08:54.562Z,1.38
2019-04-14T06:09:54.928Z,1.29
2019-04-14T06:10:54.666Z,1.26
2019-04-14T06:11:54.748Z,1.28
2019-04-14T06:12:54.498Z,1.34
2019-04-14T06:13:55.039Z,1.38
2019-04-14T06:14:54.534Z,1.39
2019-04-14T06:16:09.102Z,1.38
2019-04-14T06:16:54.566Z,1.46
2019-04-14T06:18:15.528Z,1.50
2019-04-14T06:18:54.502Z,1.49
2019-04-14T06:19:54.894Z,1.49
2019-04-14T06:20:54.428Z,1.52
2019-04-14T06:21:54.663Z,1.61
2019-04-14T06:22:54.549Z,1.63
2019-04-14T06:24:15.445Z,1.63
2019-04-14T06:24:54.506Z,1.65
2019-04-14T06:26:16.183Z,1.65
2019-04-14T06:26:54.490Z,1.71
2019-04-14T06:28:15.501Z,1.71
2019-04-14T06:28:54.429Z,1.77
2019-04-14T06:30:15.429Z,1.79
2019-04-14T06:30:54.484Z,1.81
2019-04-14T06:31:54.395Z,1.79
2019-04-14T06:32:54.263Z,1.82
2019-04-14T06:33:54.298Z,1.77
2019-04-14T06:34:54.239Z,1.79
2019-04-14T06:35:54.350Z,1.74
2019-04-14T06:36:54.248Z,1.92
2019-04-14T06:37:54.390Z,1.86
2019-04-14T06:38:54.216Z,1.93
2019-04-14T06:39:54.252Z,1.95
2019-04-14T06:40:54.178Z,1.92
2019-04-14T06:41:54.285Z,1.92
2019-04-14T06:42:54.165Z,1.93
2019-04-14T06:43:54.277Z,1.98
2019-04-14T06:44:54.130Z,2.01
2019-04-14T06:45:54.183Z,2.02
2019-04-14T06:46:54.152Z,1.93
2019-04-14T06:47:54.211Z,2.02
2019-04-14T06:48:54.091Z,2.14
2019-04-14T06:49:54.104Z,2.12
2019-04-14T06:50:54.075Z,2.22
2019-04-14T06:51:54.162Z,2.27
2019-04-14T06:52:54.047Z,2.30
2019-04-14T06:53:54.134Z,2.36
2019-04-14T06:54:54.044Z,2.36
2019-04-14T06:55:55.117Z,2.38
2019-04-14T06:56:54.044Z,2.45
2019-04-14T06:57:54.063Z,2.58
2019-04-14T06:58:53.982Z,2.53
2019-04-14T06:59:54.076Z,2.56
2019-04-14T07:00:53.973Z,2.56
2019-04-14T07:01:54.031Z,2.61
2019-04-14T07:02:53.949Z,2.66
2019-04-14T07:03:54.000Z,2.77
2019-04-14T07:04:53.921Z,2.71
2019-04-14T07:05:54.014Z,2.81
2019-04-14T07:06:53.932Z,2.81
2019-04-14T07:07:57.128Z,2.76
2019-04-14T07:08:53.883Z,2.90
2019-04-14T07:09:53.941Z,2.97
2019-04-14T07:10:53.900Z,3.10
2019-04-14T07:11:54.059Z,3.12
2019-04-14T07:12:53.848Z,3.08
2019-04-14T07:13:53.872Z,3.15
2019-04-14T07:14:53.810Z,3.26
2019-04-14T07:15:53.888Z,3.19
2019-04-14T07:16:58.467Z,3.30
2019-04-14T07:17:53.826Z,3.39
2019-04-14T07:18:53.800Z,3.42
2019-04-14T07:20:01.883Z,3.46
2019-04-14T07:20:54.765Z,3.52
2019-04-14T07:21:53.752Z,3.56
2019-04-14T07:22:53.749Z,3.54
2019-04-14T07:24:54.766Z,3.67
2019-04-14T07:25:53.719Z,3.72
2019-04-14T07:26:53.685Z,3.75
2019-04-14T07:27:53.714Z,3.86
2019-04-14T07:28:56.908Z,3.84
2019-04-14T07:29:53.674Z,3.82
2019-04-14T07:30:53.636Z,3.88
2019-04-14T07:31:53.632Z,3.93
2019-04-14T07:32:53.648Z,3.90
2019-04-14T07:33:53.642Z,4.06
2019-04-14T07:34:53.600Z,4.07
2019-04-14T07:35:53.591Z,4.16
2019-04-14T07:36:53.578Z,4.29
2019-04-14T07:37:53.611Z,4.26
2019-04-14T07:38:53.552Z,4.39
2019-04-14T07:40:54.585Z,4.42
2019-04-14T07:41:53.536Z,4.50
2019-04-14T07:42:53.536Z,4.53
2019-04-14T07:43:53.518Z,4.49
2019-04-14T07:44:53.483Z,4.54
2019-04-14T07:45:53.484Z,4.56
2019-04-14T07:46:53.467Z,4.50
2019-04-14T07:47:53.526Z,4.62
2019-04-14T07:48:53.487Z,4.56
2019-04-14T07:49:53.488Z,4.49
2019-04-14T07:50:53.433Z,4.57
2019-04-14T07:51:53.488Z,4.53
2019-04-14T07:52:53.429Z,4.59
2019-04-14T07:53:53.421Z,4.49
2019-04-14T07:54:53.374Z,4.51
2019-04-14T07:56:54.410Z,4.57
2019-04-14T07:57:53.386Z,4.71
2019-04-14T07:58:53.368Z,4.77
2019-04-14T07:59:53.389Z,4.77
2019-04-14T08:00:53.322Z,4.74
2019-04-14T08:01:53.310Z,4.86
2019-04-14T08:02:53.326Z,5.01
2019-04-14T08:03:53.293Z,5.01
2019-04-14T08:04:53.303Z,4.94
2019-04-14T08:05:53.276Z,4.93
2019-04-14T08:06:53.257Z,4.91
2019-04-14T08:07:53.245Z,4.99
2019-04-14T08:08:53.221Z,5.08
2019-04-14T08:09:53.224Z,5.06
2019-04-14T08:10:53.235Z,5.14
2019-04-14T08:11:53.194Z,5.27
2019-04-14T08:12:53.187Z,5.37
2019-04-14T08:13:53.211Z,5.47
2019-04-14T08:14:53.159Z,5.48
2019-04-14T08:15:53.156Z,5.40
2019-04-14T08:16:53.145Z,5.41
2019-04-14T08:17:53.133Z,5.47
2019-04-14T08:18:53.178Z,5.55
2019-04-14T08:19:53.112Z,5.59
2019-04-14T08:20:53.105Z,5.63
2019-04-14T08:21:53.092Z,5.59
2019-04-14T08:22:53.075Z,5.69
2019-04-14T08:23:53.083Z,5.77
2019-04-14T08:24:53.111Z,5.70
2019-04-14T08:25:53.094Z,5.73
2019-04-14T08:26:53.045Z,5.81
2019-04-14T08:27:53.037Z,5.75
2019-04-14T08:28:53.014Z,5.63
2019-04-14T08:29:53.042Z,5.75
2019-04-14T08:30:53.019Z,5.73
2019-04-14T08:31:52.981Z,5.81
2019-04-14T08:32:52.966Z,5.96
2019-04-14T08:33:52.988Z,6.02
2019-04-14T08:34:52.984Z,6.11
2019-04-14T08:35:52.934Z,6.03
2019-04-14T08:36:52.925Z,5.96
2019-04-14T08:37:52.922Z,5.99
2019-04-14T08:38:52.943Z,6.08
2019-04-14T08:39:52.924Z,6.17
2019-04-14T08:40:52.878Z,6.21
2019-04-14T08:41:52.880Z,6.27
2019-04-14T08:42:52.894Z,6.42
2019-04-14T08:43:52.871Z,6.53
2019-04-14T08:44:52.861Z,6.55
2019-04-14T08:45:52.835Z,6.57
2019-04-14T08:46:52.816Z,6.65
2019-04-14T08:47:52.816Z,6.68
2019-04-14T08:48:52.794Z,6.73
2019-04-14T08:49:52.840Z,6.75
2019-04-14T08:50:52.781Z,6.78
2019-04-14T08:51:52.810Z,6.54
2019-04-14T08:52:52.754Z,6.27
2019-04-14T08:53:52.761Z,6.32
2019-04-14T08:54:52.769Z,6.50
2019-04-14T08:55:52.732Z,6.54
2019-04-14T08:56:52.707Z,6.61
2019-04-14T08:58:53.735Z,6.76
2019-04-14T08:59:52.717Z,6.78
2019-04-14T09:00:52.666Z,6.79
2019-04-14T09:01:52.671Z,6.97
2019-04-14T09:02:52.645Z,7.12
2019-04-14T09:03:52.640Z,7.07
2019-04-14T09:04:52.622Z,7.19
2019-04-14T09:05:52.647Z,7.33
2019-04-14T09:06:52.616Z,7.45
2019-04-14T09:07:52.609Z,7.37
2019-04-14T09:08:52.623Z,7.37
2019-04-14T09:09:52.579Z,7.36
2019-04-14T09:10:52.681Z,7.47
2019-04-14T09:11:53.590Z,7.50
2019-04-14T09:12:52.563Z,7.50
2019-04-14T09:13:52.554Z,7.51
2019-04-14T09:14:57.341Z,7.44
2019-04-14T09:15:53.532Z,7.58
2019-04-14T09:16:52.489Z,7.60
2019-04-14T09:17:52.490Z,7.60
2019-04-14T09:18:53.737Z,7.51
2019-04-14T09:19:52.488Z,7.69
2019-04-14T09:20:52.916Z,7.58
2019-04-14T09:21:52.451Z,7.73
2019-04-14T09:22:52.434Z,7.99
2019-04-14T09:24:53.459Z,8.14
2019-04-14T09:25:53.454Z,8.14
2019-04-14T09:26:52.402Z,8.17
2019-04-14T09:27:52.400Z,8.13
2019-04-14T09:28:52.382Z,8.04
2019-04-14T09:29:52.602Z,8.10
2019-04-14T09:30:52.364Z,8.25
2019-04-14T09:31:52.368Z,8.17
2019-04-14T09:32:52.319Z,8.22
2019-04-14T09:33:52.319Z,8.29
2019-04-14T09:34:52.305Z,8.43
2019-04-14T09:35:52.303Z,8.47
2019-04-14T09:36:52.312Z,8.46
2019-04-14T09:37:52.273Z,8.40
2019-04-14T09:38:52.251Z,8.43
2019-04-14T09:39:52.249Z,8.40
2019-04-14T09:40:52.261Z,8.42
2019-04-14T09:41:52.261Z,8.57
2019-04-14T09:42:52.238Z,8.54
2019-04-14T09:43:52.211Z,8.57
2019-04-14T09:44:52.197Z,8.70
2019-04-14T09:45:52.199Z,8.76
2019-04-14T09:46:52.222Z,8.60
2019-04-14T09:47:52.169Z,8.64
2019-04-14T09:48:52.141Z,8.68
2019-04-14T09:49:52.131Z,8.75
2019-04-14T09:51:03.908Z,8.70
2019-04-14T09:51:53.168Z,8.83
2019-04-14T09:52:52.112Z,9.00
2019-04-14T09:53:52.104Z,8.80
2019-04-14T09:54:52.087Z,8.70
2019-04-14T09:55:52.064Z,8.63
2019-04-14T09:56:52.086Z,8.75
2019-04-14T09:57:52.106Z,8.93
2019-04-14T09:58:52.048Z,9.04
2019-04-14T09:59:52.032Z,8.96
2019-04-14T10:00:52.048Z,9.03
2019-04-14T10:01:52.032Z,9.16
2019-04-14T10:02:52.028Z,9.17
2019-04-14T10:03:52.215Z,9.13
2019-04-14T10:05:53.046Z,9.31
2019-04-14T10:06:52.293Z,9.15
2019-04-14T10:07:52.622Z,9.16
2019-04-14T10:08:52.041Z,9.32
2019-04-14T10:09:52.156Z,9.35
2019-04-14T10:10:52.117Z,9.53
2019-04-14T10:11:56.001Z,9.77
2019-04-14T10:12:51.924Z,9.95
2019-04-14T10:13:51.863Z,9.96
2019-04-14T10:14:51.864Z,10.06
2019-04-14T10:15:51.857Z,10.11
2019-04-14T10:16:51.849Z,10.01
2019-04-14T10:17:51.863Z,10.09
2019-04-14T10:18:51.817Z,10.04
2019-04-14T10:19:51.809Z,10.01
2019-04-14T10:20:51.802Z,10.01
2019-04-14T10:21:51.788Z,10.17
2019-04-14T10:22:51.816Z,10.29
2019-04-14T10:23:51.757Z,10.26
2019-04-14T10:24:51.752Z,10.43
2019-04-14T10:25:51.734Z,10.57
2019-04-14T10:26:51.737Z,10.58
2019-04-14T10:27:51.759Z,10.55
2019-04-14T10:28:51.709Z,10.36
2019-04-14T10:29:51.703Z,10.14
2019-04-14T10:30:51.690Z,10.02
2019-04-14T10:31:51.689Z,10.26
2019-04-14T10:32:51.682Z,10.11
2019-04-14T10:33:51.673Z,10.13
2019-04-14T10:34:51.677Z,10.28
2019-04-14T10:35:51.625Z,10.38
2019-04-14T10:36:51.621Z,10.43
2019-04-14T10:37:51.606Z,10.62
2019-04-14T10:38:51.696Z,10.81
2019-04-14T10:39:51.586Z,10.98
2019-04-14T10:40:51.571Z,11.12
2019-04-14T10:41:51.570Z,11.16
2019-04-14T10:42:51.554Z,11.08
2019-04-14T10:43:51.589Z,11.27
2019-04-14T10:44:51.547Z,11.21
2019-04-14T10:45:51.526Z,11.27
2019-04-14T10:46:51.522Z,11.27
2019-04-14T10:47:51.513Z,11.16
2019-04-14T10:48:51.602Z,10.88
2019-04-14T10:49:51.493Z,10.63
2019-04-14T10:50:51.475Z,10.44
2019-04-14T10:51:51.450Z,10.51
2019-04-14T10:52:51.448Z,10.44
2019-04-14T10:53:51.454Z,10.46
2019-04-14T10:54:51.431Z,10.26
2019-04-14T10:55:51.424Z,10.22
2019-04-14T10:56:51.405Z,10.09
2019-04-14T10:57:51.384Z,9.96
2019-04-14T10:58:51.503Z,9.92
2019-04-14T10:59:51.398Z,9.86
2019-04-14T11:00:51.360Z,9.92
2019-04-14T11:01:51.341Z,9.74
2019-04-14T11:02:51.337Z,9.67
2019-04-14T11:03:51.322Z,9.62
2019-04-14T11:04:51.382Z,9.60
2019-04-14T11:05:51.311Z,9.81
2019-04-14T11:06:51.293Z,10.20
2019-04-14T11:07:51.284Z,10.68
2019-04-14T11:08:51.296Z,10.81
2019-04-14T11:09:53.840Z,11.03
2019-04-14T11:10:51.255Z,11.26
2019-04-14T11:11:51.238Z,11.46
2019-04-14T11:12:51.230Z,11.78
2019-04-14T11:13:51.222Z,12.00
2019-04-14T11:14:51.283Z,11.94
2019-04-14T11:15:51.187Z,11.75
2019-04-14T11:16:51.178Z,11.53
2019-04-14T11:17:51.165Z,11.42
2019-04-14T11:18:51.177Z,11.56
2019-04-14T11:19:51.179Z,11.36
2019-04-14T11:20:51.145Z,11.59
2019-04-14T11:21:51.139Z,11.79
2019-04-14T11:23:02.724Z,11.85
2019-04-14T11:23:52.107Z,11.49
2019-04-14T11:24:51.123Z,11.30
2019-04-14T11:25:51.078Z,11.19
2019-04-14T11:26:51.073Z,11.24
2019-04-14T11:27:51.064Z,11.44
2019-04-14T11:28:51.063Z,11.78
2019-04-14T11:29:53.956Z,12.08
2019-04-14T11:30:51.057Z,12.07
2019-04-14T11:31:51.015Z,11.75
2019-04-14T11:32:51.026Z,11.75
2019-04-14T11:33:50.989Z,11.96
2019-04-14T11:34:50.988Z,11.78
2019-04-14T11:35:51.006Z,11.72
2019-04-14T11:36:50.971Z,11.45
2019-04-14T11:37:50.960Z,11.26
2019-04-14T11:38:50.960Z,11.24
2019-04-14T11:39:50.943Z,11.59
2019-04-14T11:40:51.944Z,11.85
2019-04-14T11:41:50.923Z,12.07
2019-04-14T11:42:52.436Z,12.13
2019-04-14T11:43:50.884Z,12.23
2019-04-14T11:44:50.893Z,12.30
2019-04-14T11:45:50.889Z,12.16
2019-04-14T11:46:50.874Z,11.96
2019-04-14T11:47:50.842Z,11.77
2019-04-14T11:48:50.844Z,11.67
2019-04-14T11:49:50.818Z,11.54
2019-04-14T11:50:50.859Z,11.42
2019-04-14T11:51:55.395Z,11.41
2019-04-14T11:52:51.804Z,11.24
2019-04-14T11:53:50.776Z,11.12
2019-04-14T11:54:50.765Z,11.13
2019-04-14T11:55:50.786Z,11.17
2019-04-14T11:56:50.757Z,11.30
2019-04-14T11:57:50.756Z,11.11
2019-04-14T11:58:50.725Z,10.83
2019-04-14T11:59:50.738Z,10.63
2019-04-14T12:00:50.716Z,10.52
2019-04-14T12:01:50.709Z,10.46
2019-04-14T12:02:50.681Z,10.43
2019-04-14T12:03:50.671Z,10.36
2019-04-14T12:04:50.672Z,10.16
2019-04-14T12:05:50.676Z,10.31
2019-04-14T12:06:50.674Z,10.75
2019-04-14T12:07:50.628Z,11.09
2019-04-14T12:08:50.620Z,11.28
2019-04-14T12:09:50.598Z,11.53
2019-04-14T12:10:50.600Z,11.94
2019-04-14T12:11:50.611Z,12.08
2019-04-14T12:12:50.584Z,12.25
2019-04-14T12:13:50.565Z,12.46
2019-04-14T12:14:50.546Z,12.58
2019-04-14T12:15:50.536Z,12.81
2019-04-14T12:16:50.550Z,12.58
2019-04-14T12:17:50.514Z,12.33
2019-04-14T12:18:50.509Z,12.23
2019-04-14T12:19:50.491Z,12.07
2019-04-14T12:20:50.499Z,11.87
2019-04-14T12:21:50.505Z,11.64
2019-04-14T12:22:50.497Z,11.67
2019-04-14T12:23:50.456Z,11.81
2019-04-14T12:24:50.446Z,12.21
2019-04-14T12:25:50.429Z,12.36
2019-04-14T12:26:50.446Z,12.36
2019-04-14T12:27:51.309Z,12.48
2019-04-14T12:28:51.492Z,12.49
2019-04-14T12:29:50.377Z,12.41
2019-04-14T12:30:51.159Z,12.07
2019-04-14T12:31:50.952Z,12.03
2019-04-14T12:32:50.374Z,11.81
2019-04-14T12:33:50.339Z,11.66
2019-04-14T12:34:50.339Z,11.56
2019-04-14T12:35:50.325Z,11.77
2019-04-14T12:36:50.342Z,12.12
2019-04-14T12:37:50.295Z,12.49
2019-04-14T12:38:50.301Z,12.74
2019-04-14T12:39:50.282Z,12.85
2019-04-14T12:40:50.278Z,12.73
2019-04-14T12:41:50.284Z,12.80
2019-04-14T12:42:50.242Z,12.51
2019-04-14T12:43:50.231Z,12.13
2019-04-14T12:44:50.225Z,12.15
2019-04-14T12:45:50.211Z,12.18
2019-04-14T12:46:50.196Z,12.37
2019-04-14T12:47:50.212Z,12.55
2019-04-14T12:48:50.196Z,12.67
2019-04-14T12:49:50.164Z,12.89
2019-04-14T12:50:50.159Z,12.96
2019-04-14T12:51:50.147Z,13.06
2019-04-14T12:52:50.180Z,13.09
2019-04-14T12:53:50.118Z,13.07
2019-04-14T12:55:51.145Z,13.25
2019-04-14T12:56:50.104Z,13.32
2019-04-14T12:57:50.121Z,13.36
2019-04-14T12:58:50.075Z,13.48
2019-04-14T12:59:50.055Z,13.48
2019-04-14T13:00:50.065Z,13.50
2019-04-14T13:01:50.042Z,13.44
2019-04-14T13:02:50.075Z,13.61
2019-04-14T13:03:50.012Z,13.55
2019-04-14T13:04:50.003Z,13.75
2019-04-14T13:05:49.992Z,13.81
2019-04-14T13:06:49.982Z,14.01
2019-04-14T13:07:49.999Z,13.96
2019-04-14T13:08:49.978Z,13.72
2019-04-14T13:09:49.949Z,13.29
2019-04-14T13:10:49.943Z,13.28
2019-04-14T13:11:49.932Z,13.46
2019-04-14T13:12:50.043Z,13.53
2019-04-14T13:13:49.923Z,13.44
2019-04-14T13:14:49.906Z,13.14
2019-04-14T13:15:49.883Z,12.61
2019-04-14T13:16:49.876Z,12.05
2019-04-14T13:17:49.891Z,11.88
2019-04-14T13:18:49.851Z,11.60
2019-04-14T13:19:49.857Z,11.30
2019-04-14T13:20:49.835Z,10.94
2019-04-14T13:21:49.808Z,10.81
2019-04-14T13:22:49.806Z,10.60
2019-04-14T13:23:49.819Z,10.46
2019-04-14T13:24:49.790Z,10.73
2019-04-14T13:25:49.783Z,11.01
2019-04-14T13:26:49.810Z,11.26
2019-04-14T13:27:49.748Z,11.67
2019-04-14T13:28:49.807Z,12.08
2019-04-14T13:29:49.734Z,12.36
2019-04-14T13:30:49.728Z,12.38
2019-04-14T13:31:49.754Z,12.36
2019-04-14T13:32:49.694Z,12.08
2019-04-14T13:33:49.711Z,11.74
2019-04-14T13:34:49.685Z,12.00
2019-04-14T13:35:49.665Z,12.25
2019-04-14T13:36:49.656Z,12.23
2019-04-14T13:37:49.639Z,12.29
2019-04-14T13:38:49.669Z,12.40
2019-04-14T13:39:49.659Z,12.56
2019-04-14T13:40:49.626Z,12.76
2019-04-14T13:41:49.614Z,12.91
2019-04-14T13:43:50.643Z,13.32
2019-04-14T13:44:49.572Z,13.36
2019-04-14T13:45:49.581Z,13.41